Time;durP1;ratioP1;P1;durP2;ratioP2;P2;SDS_P1;SDS_P2;PMS_P1;PMS_P2;Temp;Humidity;BMP_temperature;BMP_pressure;BME280_temperature;BME280_humidity;BME280_pressure;Samples;Min_cycle;Max_cycle;Signal;HPM_P1;HPM_P2
2022/02/26 00:01:10;;;;;;;2.08;1.25;;;18.10;44.70;;;;;;5036429;28;20173;-84
2022/02/26 00:03:37;;;;;;;2.50;1.17;;;18.10;44.60;;;;;;5035957;28;20184;-83
2022/02/26 00:06:05;;;;;;;2.90;1.20;;;18.10;44.70;;;;;;5018853;28;20185;-83
2022/02/26 00:08:30;;;;;;;2.13;1.25;;;18.10;44.70;;;;;;5035945;28;20182;-83
2022/02/26 00:10:56;;;;;;;1.50;1.25;;;18.00;44.70;;;;;;5020820;28;20185;-83
2022/02/26 00:13:21;;;;;;;1.55;1.00;;;18.10;44.80;;;;;;5053401;28;20166;-84
2022/02/26 00:15:47;;;;;;;2.88;1.00;;;18.10;44.80;;;;;;5036714;28;20647;-83
2022/02/26 00:18:13;;;;;;;1.45;1.00;;;18.10;44.70;;;;;;5020639;28;20208;-83
2022/02/26 00:20:38;;;;;;;2.17;1.48;;;18.10;44.80;;;;;;5036553;28;20166;-83
2022/02/26 00:23:04;;;;;;;1.60;1.00;;;18.10;44.90;;;;;;5020031;28;20261;-84
2022/02/26 00:25:30;;;;;;;2.35;1.10;;;18.10;45.00;;;;;;5053416;28;20194;-83
2022/02/26 00:27:55;;;;;;;2.88;1.20;;;18.00;44.90;;;;;;5036368;28;20158;-82
2022/02/26 00:30:21;;;;;;;1.58;1.20;;;18.10;45.00;;;;;;5054724;28;20162;-84
2022/02/26 00:32:48;;;;;;;1.98;1.40;;;18.10;44.90;;;;;;5056202;28;20154;-84
2022/02/26 00:35:14;;;;;;;3.00;1.40;;;18.00;44.90;;;;;;5006348;28;20239;-83
2022/02/26 00:37:41;;;;;;;1.77;1.20;;;18.10;45.00;;;;;;4989831;28;20181;-84
2022/02/26 00:40:08;;;;;;;2.50;1.13;;;18.00;45.00;;;;;;5005905;28;20216;-83
2022/02/26 00:42:35;;;;;;;1.42;1.15;;;18.00;45.00;;;;;;5073971;28;20647;-83
2022/02/26 00:45:01;;;;;;;1.70;1.40;;;18.10;45.10;;;;;;5056085;28;20219;-83
2022/02/26 00:47:26;;;;;;;1.60;1.40;;;18.10;45.10;;;;;;5073823;28;20234;-84
2022/02/26 00:49:52;;;;;;;2.42;1.10;;;18.00;45.20;;;;;;5056138;28;20192;-83
2022/02/26 00:52:19;;;;;;;2.45;1.00;;;18.00;45.00;;;;;;5039363;28;20158;-84
2022/02/26 00:54:45;;;;;;;2.42;1.10;;;17.90;45.00;;;;;;5039447;28;20161;-83
2022/02/26 00:57:11;;;;;;;1.33;1.15;;;18.00;45.20;;;;;;5039388;28;20551;-83
2022/02/26 00:59:40;;;;;;;1.65;1.25;;;18.10;45.30;;;;;;5055663;28;20193;-83
2022/02/26 01:02:05;;;;;;;1.65;1.10;;;18.00;45.20;;;;;;5021940;28;20272;-83
2022/02/26 01:04:31;;;;;;;1.73;1.13;;;18.00;45.30;;;;;;5022508;28;20256;-84
2022/02/26 01:06:56;;;;;;;1.60;1.23;;;18.00;45.20;;;;;;5055638;28;20171;-83
2022/02/26 01:09:24;;;;;;;1.20;1.10;;;18.00;45.40;;;;;;5038928;28;20158;-83
2022/02/26 01:11:52;;;;;;;1.40;1.17;;;18.00;45.20;;;;;;5005635;28;20260;-83
2022/02/26 01:14:20;;;;;;;1.13;1.00;;;18.00;45.50;;;;;;5021578;28;20723;-82
2022/02/26 01:16:47;;;;;;;1.77;1.17;;;17.90;45.30;;;;;;5005061;28;20252;-83
2022/02/26 01:19:15;;;;;;;1.45;1.00;;;18.00;45.50;;;;;;5005454;28;20305;-83
2022/02/26 01:21:43;;;;;;;1.83;1.13;;;18.00;45.50;;;;;;4989319;28;20184;-83
2022/02/26 01:24:12;;;;;;;2.58;1.10;;;18.00;45.60;;;;;;5005686;28;20185;-82
2022/02/26 01:26:38;;;;;;;1.90;1.15;;;17.90;45.40;;;;;;4989158;28;20239;-82
2022/02/26 01:29:04;;;;;;;1.08;0.98;;;18.00;45.60;;;;;;5022318;28;20512;-83
2022/02/26 01:31:30;;;;;;;2.00;1.27;;;18.00;45.60;;;;;;5038643;28;20232;-83
2022/02/26 01:33:56;;;;;;;1.30;1.10;;;18.00;45.80;;;;;;5022207;28;20173;-83
2022/02/26 01:36:21;;;;;;;1.00;0.90;;;18.00;45.70;;;;;;5022390;28;20214;-83
2022/02/26 01:38:47;;;;;;;2.47;1.20;;;17.90;45.60;;;;;;5055277;28;20280;-84
2022/02/26 01:41:13;;;;;;;1.10;0.95;;;17.90;45.60;;;;;;5038805;28;20164;-84
2022/02/26 01:43:38;;;;;;;1.55;1.17;;;18.00;45.80;;;;;;5055236;28;20161;-84
2022/02/26 01:46:05;;;;;;;2.13;1.27;;;17.90;45.60;;;;;;5038894;28;20161;-83
2022/02/26 01:48:33;;;;;;;2.85;1.27;;;17.90;45.60;;;;;;5038762;28;20187;-83
2022/02/26 01:51:00;;;;;;;1.60;1.00;;;18.00;45.80;;;;;;5021452;28;20180;-83
2022/02/26 01:53:26;;;;;;;3.05;1.20;;;18.00;45.60;;;;;;5004773;28;20181;-83
2022/02/26 01:55:53;;;;;;;1.65;1.30;;;17.90;45.60;;;;;;5021894;28;20177;-83
2022/02/26 01:58:19;;;;;;;1.08;0.98;;;17.90;45.70;;;;;;5021573;28;20177;-83
2022/02/26 02:00:45;;;;;;;1.85;1.15;;;17.90;45.60;;;;;;5038582;28;20180;-83
2022/02/26 02:03:10;;;;;;;1.52;1.27;;;17.90;45.80;;;;;;5038742;28;20165;-83
2022/02/26 02:05:36;;;;;;;1.15;1.00;;;17.90;45.60;;;;;;5038435;28;20158;-84
2022/02/26 02:08:03;;;;;;;1.58;1.10;;;17.90;45.60;;;;;;5021969;28;20533;-83
2022/02/26 02:10:29;;;;;;;1.70;1.00;;;17.80;45.80;;;;;;5055079;28;20162;-83
2022/02/26 02:12:54;;;;;;;1.63;0.98;;;17.90;45.90;;;;;;5054894;28;20207;-83
2022/02/26 02:15:37;;;;;;;2.63;1.08;;;18.00;45.90;;;;;;5038528;28;20161;-83
2022/02/26 02:18:03;;;;;;;1.60;1.27;;;17.90;45.90;;;;;;5039058;28;20154;-83
2022/02/26 02:20:29;;;;;;;1.55;1.20;;;17.90;46.00;;;;;;5038417;28;20230;-84
2022/02/26 02:22:55;;;;;;;1.70;1.20;;;17.90;46.10;;;;;;5054987;28;20544;-83
2022/02/26 02:25:26;;;;;;;1.38;1.20;;;17.90;46.10;;;;;;5038776;28;20196;-84
2022/02/26 02:27:51;;;;;;;1.92;1.20;;;17.90;46.10;;;;;;5022960;28;20173;-83
2022/02/26 02:30:17;;;;;;;1.73;1.00;;;17.90;46.00;;;;;;5025709;28;20173;-83
2022/02/26 02:32:43;;;;;;;1.63;1.10;;;17.80;45.80;;;;;;5058567;28;20165;-83
2022/02/26 02:35:30;;;;;;;3.42;1.20;;;17.90;46.10;;;;;;5058514;28;20154;-84
2022/02/26 02:38:01;;;;;;;1.50;1.20;;;17.90;46.10;;;;;;5076622;28;20256;-83
2022/02/26 02:40:27;;;;;;;2.00;1.27;;;17.80;46.20;;;;;;5042695;28;20197;-83
2022/02/26 02:42:53;;;;;;;1.23;0.95;;;17.80;46.10;;;;;;5041738;28;20310;-83
2022/02/26 02:45:20;;;;;;;1.25;1.10;;;17.90;46.20;;;;;;5041665;28;20177;-84
2022/02/26 02:47:48;;;;;;;1.38;1.08;;;17.80;46.20;;;;;;5008104;28;20192;-83
2022/02/26 02:50:15;;;;;;;1.98;1.10;;;17.90;46.20;;;;;;5024295;28;20203;-83
2022/02/26 02:52:43;;;;;;;1.77;1.20;;;17.80;46.20;;;;;;5024556;28;20181;-84
2022/02/26 02:55:09;;;;;;;1.15;1.05;;;17.90;46.30;;;;;;5024643;28;20177;-83
2022/02/26 02:57:36;;;;;;;1.00;0.90;;;17.80;46.20;;;;;;5058474;28;20161;-83
2022/02/26 03:00:06;;;;;;;1.45;1.20;;;17.80;46.20;;;;;;5007997;28;20681;-83
2022/02/26 03:02:33;;;;;;;1.40;0.90;;;17.80;46.40;;;;;;5024894;28;20239;-83
2022/02/26 03:04:59;;;;;;;1.02;0.82;;;17.80;46.20;;;;;;5007711;28;20191;-83
2022/02/26 03:07:26;;;;;;;2.33;1.10;;;17.80;46.40;;;;;;5041445;28;20156;-83
2022/02/26 03:09:52;;;;;;;1.63;1.00;;;17.80;46.30;;;;;;5023863;28;20204;-83
2022/02/26 03:12:18;;;;;;;1.88;1.25;;;17.70;46.30;;;;;;5024003;28;20189;-83
2022/02/26 03:14:44;;;;;;;2.55;1.10;;;17.80;46.30;;;;;;5041314;28;20245;-83
2022/02/26 03:17:10;;;;;;;1.10;0.93;;;17.80;46.50;;;;;;5040943;28;20146;-83
2022/02/26 03:19:36;;;;;;;1.25;0.80;;;17.80;46.40;;;;;;5041179;28;20215;-83
2022/02/26 03:22:03;;;;;;;1.52;1.00;;;17.80;46.40;;;;;;5024962;28;20165;-83
2022/02/26 03:24:29;;;;;;;2.47;1.10;;;17.80;46.50;;;;;;5008025;28;20181;-83
2022/02/26 03:26:58;;;;;;;1.23;0.90;;;17.80;46.50;;;;;;5040427;28;20238;-84
2022/02/26 03:29:25;;;;;;;1.10;1.00;;;17.80;46.50;;;;;;5023608;28;20181;-84
2022/02/26 03:31:52;;;;;;;1.08;0.98;;;17.80;46.40;;;;;;5040816;28;20220;-83
2022/02/26 03:34:20;;;;;;;1.30;0.93;;;17.80;46.50;;;;;;5007558;28;20268;-84
2022/02/26 03:36:47;;;;;;;1.60;1.17;;;17.80;46.50;;;;;;5007696;28;20185;-84
2022/02/26 03:39:14;;;;;;;1.10;1.00;;;17.80;46.50;;;;;;5024089;28;20198;-84
2022/02/26 03:41:39;;;;;;;1.38;1.00;;;17.80;46.50;;;;;;5040950;28;20631;-83
2022/02/26 03:44:05;;;;;;;1.00;0.90;;;17.80;46.60;;;;;;5057259;28;20162;-83
2022/02/26 03:46:31;;;;;;;1.13;1.02;;;17.80;46.60;;;;;;5041174;28;20229;-83
2022/02/26 03:48:57;;;;;;;1.80;1.00;;;17.80;47.30;;;;;;5040598;28;20162;-83
2022/02/26 03:51:22;;;;;;;2.63;1.05;;;17.80;46.60;;;;;;5040802;28;20165;-84
2022/02/26 03:53:48;;;;;;;1.85;0.98;;;17.80;46.50;;;;;;5058245;28;20608;-83
2022/02/26 03:56:13;;;;;;;1.13;1.00;;;17.70;46.40;;;;;;5058015;28;20218;-84
2022/02/26 03:58:40;;;;;;;1.33;1.00;;;17.80;46.60;;;;;;5043808;28;20161;-83
2022/02/26 04:01:06;;;;;;;1.30;1.20;;;17.70;46.60;;;;;;5061583;28;20168;-83
2022/02/26 04:03:32;;;;;;;0.60;0.60;;;17.80;46.60;;;;;;5061434;28;20220;-83
2022/02/26 04:05:58;;;;;;;2.28;1.05;;;17.80;46.60;;;;;;5061116;28;20517;-82
2022/02/26 04:08:24;;;;;;;2.00;0.95;;;17.70;46.70;;;;;;5060380;28;20157;-83
2022/02/26 04:10:50;;;;;;;1.40;1.02;;;17.70;46.70;;;;;;5040930;28;20176;-83
2022/02/26 04:13:15;;;;;;;2.25;1.30;;;17.70;46.70;;;;;;5041146;28;20181;-83
2022/02/26 04:15:41;;;;;;;1.42;0.85;;;17.70;46.70;;;;;;5042553;28;20150;-83
2022/02/26 04:18:08;;;;;;;2.05;1.15;;;17.70;46.70;;;;;;5041261;28;20168;-83
2022/02/26 04:20:33;;;;;;;1.15;0.98;;;17.70;46.80;;;;;;5056983;28;20185;-83
2022/02/26 04:22:59;;;;;;;2.08;1.00;;;17.70;46.80;;;;;;5040833;28;20149;-84
2022/02/26 04:25:24;;;;;;;3.00;1.10;;;17.70;46.80;;;;;;5074899;28;20552;-82
2022/02/26 04:27:50;;;;;;;1.00;0.90;;;17.70;47.50;;;;;;5039939;28;20157;-83
2022/02/26 04:30:16;;;;;;;1.67;1.10;;;17.70;46.80;;;;;;5056139;28;20153;-83
2022/02/26 04:32:41;;;;;;;0.82;0.77;;;17.60;46.70;;;;;;5023291;28;20226;-82
2022/02/26 04:35:07;;;;;;;1.27;1.10;;;17.70;46.90;;;;;;5056296;28;20689;-83
2022/02/26 04:37:36;;;;;;;2.30;1.05;;;17.70;46.70;;;;;;5039870;28;20196;-82
2022/02/26 04:40:04;;;;;;;1.02;0.90;;;17.70;46.80;;;;;;5022365;28;20281;-83
2022/02/26 04:42:33;;;;;;;1.10;0.90;;;17.70;46.80;;;;;;4990260;28;20185;-82
2022/02/26 04:45:01;;;;;;;15.27;1.42;;;17.70;46.80;;;;;;5022817;28;20268;-83
2022/02/26 04:47:28;;;;;;;1.10;0.90;;;17.70;46.70;;;;;;4989738;28;20173;-82
2022/02/26 04:49:56;;;;;;;1.50;1.00;;;17.70;46.50;;;;;;5005974;28;20188;-83
2022/02/26 04:52:24;;;;;;;1.65;1.00;;;17.70;46.60;;;;;;5005651;28;20264;-82
2022/02/26 04:54:52;;;;;;;1.52;1.15;;;17.60;46.60;;;;;;5005832;28;20200;-83
2022/02/26 04:57:19;;;;;;;1.83;1.25;;;17.70;46.70;;;;;;5006172;28;20181;-82
2022/02/26 04:59:47;;;;;;;1.00;0.90;;;17.70;46.60;;;;;;5005631;28;20262;-83
2022/02/26 05:02:14;;;;;;;1.52;0.90;;;17.70;46.60;;;;;;5005574;28;20607;-83
2022/02/26 05:04:41;;;;;;;1.05;0.90;;;17.70;46.80;;;;;;5021804;28;20189;-83
2022/02/26 05:07:08;;;;;;;1.10;0.93;;;17.80;46.90;;;;;;5005435;28;20188;-83
2022/02/26 05:09:35;;;;;;;1.30;1.00;;;17.60;46.90;;;;;;5005430;28;20659;-83
2022/02/26 05:12:01;;;;;;;1.83;1.00;;;17.70;47.00;;;;;;5038473;28;20200;-83
2022/02/26 05:14:27;;;;;;;1.88;1.00;;;17.70;47.00;;;;;;5022553;28;20169;-82
2022/02/26 05:16:52;;;;;;;1.95;0.90;;;17.70;47.00;;;;;;5039335;28;20508;-82
2022/02/26 05:19:18;;;;;;;1.35;1.10;;;17.60;46.90;;;;;;5039027;28;20299;-83
2022/02/26 05:21:43;;;;;;;1.42;0.90;;;17.70;46.90;;;;;;5055505;28;20158;-82
2022/02/26 05:24:09;;;;;;;0.95;0.90;;;17.70;46.90;;;;;;5073656;28;20161;-81
2022/02/26 05:26:35;;;;;;;1.52;0.90;;;17.70;46.90;;;;;;5038813;28;20172;-82
2022/02/26 05:29:00;;;;;;;1.65;1.10;;;17.70;46.90;;;;;;5055445;28;20168;-82
2022/02/26 05:31:26;;;;;;;1.33;0.80;;;17.70;46.90;;;;;;5038668;28;20221;-83
2022/02/26 05:33:53;;;;;;;1.13;0.90;;;17.70;46.90;;;;;;5055239;28;20639;-82
2022/02/26 05:36:21;;;;;;;2.40;0.80;;;17.70;46.90;;;;;;5005116;28;20185;-82
2022/02/26 05:38:48;;;;;;;0.73;0.73;;;17.70;46.90;;;;;;5021618;28;20232;-84
2022/02/26 05:41:14;;;;;;;1.30;0.98;;;17.70;47.00;;;;;;5005329;28;20189;-84
2022/02/26 05:43:40;;;;;;;1.75;0.93;;;17.70;46.90;;;;;;5038684;28;20237;-83
2022/02/26 05:46:05;;;;;;;1.05;0.80;;;17.70;47.00;;;;;;5055267;28;20241;-81
2022/02/26 05:48:31;;;;;;;1.85;1.10;;;17.70;46.90;;;;;;5038486;28;20169;-83
2022/02/26 05:50:57;;;;;;;1.33;1.05;;;17.70;47.00;;;;;;5055207;28;20260;-82
2022/02/26 05:53:22;;;;;;;1.15;0.98;;;17.70;47.00;;;;;;5038535;28;20165;-82
2022/02/26 05:55:48;;;;;;;1.45;1.10;;;17.60;47.00;;;;;;5038745;28;20169;-82
2022/02/26 05:58:13;;;;;;;1.58;1.05;;;17.60;46.90;;;;;;5055083;28;20162;-82
2022/02/26 06:00:41;;;;;;;1.30;0.90;;;17.70;46.90;;;;;;5055195;28;20281;-82
2022/02/26 06:03:08;;;;;;;1.35;1.00;;;17.70;47.00;;;;;;5024582;28;20185;-82
2022/02/26 06:05:34;;;;;;;1.23;0.77;;;17.70;47.10;;;;;;4992440;28;20177;-81
2022/02/26 06:07:59;;;;;;;1.10;0.80;;;17.70;47.80;;;;;;5059110;28;20154;-82
2022/02/26 06:10:25;;;;;;;1.60;1.17;;;17.60;47.00;;;;;;5042549;28;20562;-83
2022/02/26 06:12:52;;;;;;;1.10;0.80;;;17.60;47.00;;;;;;5042389;28;20165;-83
2022/02/26 06:15:19;;;;;;;0.93;0.82;;;17.60;47.00;;;;;;4992247;28;20559;-83
2022/02/26 06:17:45;;;;;;;1.00;0.85;;;17.70;47.20;;;;;;4992532;28;20251;-84
2022/02/26 06:20:13;;;;;;;1.50;0.90;;;17.70;47.20;;;;;;5008619;28;20209;-83
2022/02/26 06:22:38;;;;;;;0.90;0.75;;;17.70;47.00;;;;;;5025354;28;20671;-83
2022/02/26 06:25:04;;;;;;;0.70;0.70;;;17.70;46.90;;;;;;5076545;28;20165;-81
2022/02/26 06:27:34;;;;;;;0.80;0.77;;;17.70;46.20;;;;;;5076631;28;20160;-81
2022/02/26 06:29:59;;;;;;;0.85;0.80;;;17.80;46.50;;;;;;5058736;28;20158;-80
2022/02/26 06:32:25;;;;;;;1.50;0.90;;;17.80;46.30;;;;;;5058721;28;20743;-81
2022/02/26 06:34:50;;;;;;;2.30;0.80;;;17.80;46.20;;;;;;5058738;28;20153;-81
2022/02/26 06:37:16;;;;;;;1.75;1.10;;;17.80;46.00;;;;;;5025563;28;20193;-81
2022/02/26 06:39:43;;;;;;;1.33;0.68;;;17.90;46.20;;;;;;5041897;28;20186;-81
2022/02/26 06:42:10;;;;;;;1.25;0.90;;;17.90;46.20;;;;;;5008475;28;20181;-81
2022/02/26 06:44:35;;;;;;;0.80;0.80;;;17.90;45.80;;;;;;5008134;28;20181;-82
2022/02/26 06:47:02;;;;;;;1.65;1.10;;;17.90;46.00;;;;;;5058377;28;20172;-80
2022/02/26 06:49:29;;;;;;;2.50;1.00;;;17.90;46.10;;;;;;5024394;28;20715;-82
2022/02/26 06:51:55;;;;;;;1.25;0.95;;;17.90;46.20;;;;;;5008091;28;20196;-81
2022/02/26 06:54:21;;;;;;;0.80;0.80;;;18.00;46.30;;;;;;5041665;28;20158;-81
2022/02/26 06:56:46;;;;;;;1.85;1.17;;;17.90;46.40;;;;;;5058023;28;20210;-81
2022/02/26 06:59:14;;;;;;;1.10;1.00;;;17.80;46.40;;;;;;5075882;28;20204;-81
2022/02/26 07:01:45;;;;;;;1.33;0.80;;;17.90;46.50;;;;;;5024345;28;20218;-81
2022/02/26 07:04:13;;;;;;;1.50;1.10;;;17.80;46.60;;;;;;4993589;28;20197;-83
2022/02/26 07:06:43;;;;;;;1.15;0.90;;;17.90;46.50;;;;;;5008099;28;20193;-81
2022/02/26 07:09:11;;;;;;;0.93;0.80;;;17.90;46.60;;;;;;5008940;28;20189;-80
2022/02/26 07:11:37;;;;;;;1.10;0.90;;;17.90;46.70;;;;;;5025003;28;20691;-82
2022/02/26 07:14:03;;;;;;;1.80;1.00;;;17.90;46.60;;;;;;5057121;28;20196;-82
2022/02/26 07:16:28;;;;;;;1.35;0.90;;;17.90;46.50;;;;;;5041264;28;20564;-82
2022/02/26 07:18:54;;;;;;;1.33;0.90;;;17.80;46.50;;;;;;5041051;28;20193;-80
2022/02/26 07:21:20;;;;;;;1.52;1.00;;;17.80;46.60;;;;;;5024591;28;20184;-81
2022/02/26 07:23:45;;;;;;;1.00;0.90;;;17.90;46.60;;;;;;5041101;28;20149;-82
2022/02/26 07:26:15;;;;;;;1.70;1.10;;;17.80;46.60;;;;;;5057824;28;20161;-81
2022/02/26 07:28:42;;;;;;;0.90;0.73;;;17.80;46.50;;;;;;5007809;28;20644;-83
2022/02/26 07:31:07;;;;;;;0.98;0.80;;;17.80;46.60;;;;;;5004231;28;20565;-81
2022/02/26 07:33:34;;;;;;;0.85;0.77;;;17.80;46.40;;;;;;5054132;28;20637;-82
2022/02/26 07:36:00;;;;;;;1.10;0.90;;;17.80;46.50;;;;;;5037257;28;20180;-81
2022/02/26 07:38:27;;;;;;;1.60;0.90;;;17.80;46.50;;;;;;5020528;28;20178;-82
2022/02/26 07:40:53;;;;;;;0.93;0.88;;;17.80;46.40;;;;;;5037112;28;20202;-82
2022/02/26 07:43:18;;;;;;;0.80;0.75;;;17.90;46.60;;;;;;5020799;28;20189;-81
2022/02/26 07:45:44;;;;;;;1.05;0.90;;;17.80;46.50;;;;;;5020582;28;20281;-81
2022/02/26 07:48:10;;;;;;;2.30;1.00;;;17.70;46.50;;;;;;5037312;28;20233;-81
2022/02/26 07:50:35;;;;;;;1.45;0.80;;;17.90;46.20;;;;;;5054101;28;20162;-82
2022/02/26 07:53:01;;;;;;;0.88;0.70;;;18.00;46.00;;;;;;5054252;28;20617;-82
2022/02/26 07:55:26;;;;;;;0.85;0.82;;;18.00;46.00;;;;;;5037779;28;20170;-81
2022/02/26 07:57:52;;;;;;;1.10;0.80;;;18.00;45.90;;;;;;5038118;28;20151;-82
2022/02/26 08:00:18;;;;;;;2.70;1.30;;;18.00;45.70;;;;;;5022479;28;20193;-82
2022/02/26 08:02:44;;;;;;;2.20;0.80;;;18.10;45.00;;;;;;5056915;28;20245;-81
2022/02/26 08:05:09;;;;;;;1.15;0.82;;;18.10;44.80;;;;;;5056601;28;20220;-81
2022/02/26 08:07:35;;;;;;;0.80;0.80;;;18.20;45.00;;;;;;5053979;28;20170;-83
2022/02/26 08:10:03;;;;;;;0.98;0.70;;;18.20;44.60;;;;;;5038140;28;20609;-83
2022/02/26 08:12:28;;;;;;;1.33;0.80;;;18.30;44.00;;;;;;5020436;28;20546;-81
2022/02/26 08:14:54;;;;;;;1.52;0.80;;;18.40;44.20;;;;;;5038378;28;20206;-82
2022/02/26 08:17:21;;;;;;;1.95;0.95;;;18.30;44.10;;;;;;5054222;28;20153;-82
2022/02/26 08:19:48;;;;;;;1.10;0.65;;;18.40;43.90;;;;;;5004536;28;20251;-82
2022/02/26 08:22:14;;;;;;;1.70;0.80;;;18.40;43.90;;;;;;5004171;28;20182;-83
2022/02/26 08:24:41;;;;;;;1.02;0.77;;;18.40;44.20;;;;;;5037098;28;20241;-80
2022/02/26 08:27:09;;;;;;;0.88;0.70;;;18.40;43.40;;;;;;5035420;28;20190;-80
2022/02/26 08:29:36;;;;;;;0.77;0.70;;;18.50;43.70;;;;;;5019336;28;20224;-80
2022/02/26 08:32:03;;;;;;;1.67;0.80;;;18.60;43.00;;;;;;5036377;28;20233;-82
2022/02/26 08:34:30;;;;;;;1.75;0.80;;;18.60;43.40;;;;;;5020301;28;20186;-82
2022/02/26 08:36:57;;;;;;;0.70;0.70;;;18.60;43.20;;;;;;5003913;28;20257;-82
2022/02/26 08:39:24;;;;;;;1.80;0.70;;;18.60;43.00;;;;;;5055422;28;20182;-82
2022/02/26 08:41:51;;;;;;;1.77;0.90;;;18.70;42.60;;;;;;5055300;28;20150;-81
2022/02/26 08:44:17;;;;;;;2.08;0.80;;;18.70;43.00;;;;;;5054086;28;20147;-83
2022/02/26 08:46:43;;;;;;;1.75;0.85;;;18.70;42.40;;;;;;5054628;28;20557;-82
2022/02/26 08:49:08;;;;;;;1.50;0.60;;;18.70;42.60;;;;;;5036664;28;20162;-81
2022/02/26 08:51:35;;;;;;;1.67;0.73;;;18.80;42.10;;;;;;5054808;28;20210;-84
2022/02/26 08:54:03;;;;;;;1.35;0.88;;;18.80;42.20;;;;;;5055136;28;20154;-84
2022/02/26 08:56:29;;;;;;;2.05;0.90;;;18.90;42.30;;;;;;5021232;28;20217;-81
2022/02/26 08:58:57;;;;;;;1.17;0.85;;;18.90;41.90;;;;;;5053504;28;20182;-82
2022/02/26 09:01:23;;;;;;;3.55;0.82;;;18.90;42.20;;;;;;5020557;28;20182;-85
2022/02/26 09:03:50;;;;;;;3.45;0.93;;;18.80;42.30;;;;;;5053965;28;20532;-86
2022/02/26 09:06:16;;;;;;;1.13;1.00;;;18.80;42.10;;;;;;5036929;28;20185;-82
2022/02/26 09:08:45;;;;;;;6.00;1.10;;;18.80;42.20;;;;;;5037119;28;20184;-82
2022/02/26 09:11:14;;;;;;;3.28;1.05;;;18.80;42.40;;;;;;5019933;28;20217;-82
2022/02/26 09:13:45;;;;;;;2.72;0.90;;;18.80;42.60;;;;;;5019077;28;20280;-81
2022/02/26 09:16:14;;;;;;;1.42;0.80;;;18.80;42.50;;;;;;5035399;28;20221;-81
2022/02/26 09:18:43;;;;;;;2.65;1.08;;;18.80;42.50;;;;;;5018354;28;20268;-81
2022/02/26 09:21:13;;;;;;;1.73;0.70;;;18.80;41.80;;;;;;5035153;28;20220;-82
2022/02/26 09:23:42;;;;;;;1.15;0.70;;;18.80;42.20;;;;;;5019396;28;20198;-81
2022/02/26 09:26:10;;;;;;;2.00;0.88;;;18.80;41.90;;;;;;5018894;28;20292;-81
2022/02/26 09:28:40;;;;;;;3.08;0.90;;;18.80;41.80;;;;;;5019063;28;20516;-82
2022/02/26 09:31:06;;;;;;;1.70;0.68;;;18.80;41.80;;;;;;5018434;28;20226;-81
2022/02/26 09:33:35;;;;;;;3.20;0.70;;;18.80;41.30;;;;;;5035688;28;20169;-82
2022/02/26 09:36:05;;;;;;;1.52;0.70;;;18.90;41.00;;;;;;5018712;28;20193;-81
2022/02/26 09:38:34;;;;;;;1.88;1.00;;;18.90;41.00;;;;;;5018321;28;20178;-81
2022/02/26 09:41:03;;;;;;;1.77;0.75;;;18.90;40.90;;;;;;5019227;28;20205;-81
2022/02/26 09:43:31;;;;;;;2.63;0.77;;;18.90;41.00;;;;;;5035771;28;20221;-82
2022/02/26 09:46:00;;;;;;;2.38;0.70;;;18.90;40.80;;;;;;5036157;28;20186;-82
2022/02/26 09:48:28;;;;;;;0.60;0.57;;;18.90;41.00;;;;;;5019666;28;20273;-82
2022/02/26 09:50:57;;;;;;;10.15;1.10;;;18.90;40.80;;;;;;5019553;28;20701;-82
2022/02/26 09:53:25;;;;;;;2.70;0.77;;;18.90;40.70;;;;;;5019379;28;20181;-80
2022/02/26 09:55:53;;;;;;;5.32;1.10;;;18.90;40.80;;;;;;5019298;28;20181;-82
2022/02/26 09:58:21;;;;;;;1.88;0.60;;;18.90;41.00;;;;;;5035652;28;20182;-81
2022/02/26 10:00:49;;;;;;;6.28;1.23;;;18.90;40.80;;;;;;5019823;28;20312;-83
2022/02/26 10:03:36;;;;;;;3.63;0.98;;;19.00;41.30;;;;;;5019759;28;20217;-84
2022/02/26 10:06:14;;;;;;;6.00;0.90;;;18.90;41.70;;;;;;5053489;28;20627;-84
2022/02/26 10:08:45;;;;;;;2.00;0.80;;;19.00;41.00;;;;;;5022570;28;20220;-84
2022/02/26 10:11:31;;;;;;;6.57;0.90;;;19.00;40.80;;;;;;5020180;28;20302;-82
2022/02/26 10:14:05;;;;;;;3.05;0.95;;;19.00;41.30;;;;;;5005574;28;20189;-84
2022/02/26 10:16:48;;;;;;;12.65;1.08;;;19.10;41.60;;;;;;5005202;28;20197;-84
2022/02/26 10:19:34;;;;;;;2.22;0.73;;;19.00;41.10;;;;;;5035908;28;20295;-83
2022/02/26 10:22:04;;;;;;;2.53;1.00;;;19.00;41.20;;;;;;5035548;28;20190;-82
2022/02/26 10:24:31;;;;;;;1.58;0.90;;;19.10;40.50;;;;;;5020483;28;20265;-84
2022/02/26 10:27:00;;;;;;;1.33;0.70;;;19.00;40.60;;;;;;5020528;28;20634;-82
2022/02/26 10:29:28;;;;;;;3.72;0.90;;;19.00;40.60;;;;;;5005014;28;20606;-82
2022/02/26 10:31:57;;;;;;;2.20;0.90;;;19.00;40.60;;;;;;5006111;28;20222;-82
2022/02/26 10:34:36;;;;;;;2.60;0.80;;;19.00;40.40;;;;;;5040731;28;20182;-80
2022/02/26 10:37:06;;;;;;;3.15;0.98;;;19.00;40.30;;;;;;5042421;28;20174;-81
2022/02/26 10:39:37;;;;;;;2.05;0.85;;;19.00;40.70;;;;;;5025208;28;20222;-83
2022/02/26 10:42:05;;;;;;;5.35;0.93;;;19.00;40.40;;;;;;5024801;28;20210;-84
2022/02/26 10:44:31;;;;;;;4.57;0.85;;;19.00;40.70;;;;;;5004667;28;20178;-82
2022/02/26 10:47:07;;;;;;;4.25;0.95;;;19.00;40.70;;;;;;5022200;28;20241;-83
2022/02/26 10:49:38;;;;;;;1.85;0.90;;;19.00;40.70;;;;;;5039962;28;20196;-81
2022/02/26 10:52:08;;;;;;;3.47;0.85;;;19.00;40.70;;;;;;5009740;28;20188;-83
2022/02/26 10:54:33;;;;;;;4.50;0.98;;;19.00;40.70;;;;;;5027127;28;20237;-81
2022/02/26 10:57:00;;;;;;;1.63;0.85;;;19.00;40.70;;;;;;5056286;28;20168;-84
2022/02/26 10:59:29;;;;;;;3.78;0.80;;;19.00;40.70;;;;;;5041214;28;20182;-82
2022/02/26 11:02:03;;;;;;;3.25;1.10;;;19.00;40.70;;;;;;5040469;28;20154;-83
2022/02/26 11:04:30;;;;;;;2.40;1.02;;;19.00;40.70;;;;;;5023425;28;20286;-84
2022/02/26 11:06:56;;;;;;;5.57;1.08;;;19.00;40.70;;;;;;5040516;28;20244;-84
2022/02/26 11:09:29;;;;;;;3.72;1.02;;;19.00;40.70;;;;;;5061836;28;20151;-81
2022/02/26 11:11:59;;;;;;;6.88;1.00;;;19.00;40.50;;;;;;5073245;28;20166;-81
2022/02/26 11:14:27;;;;;;;6.60;0.88;;;19.00;40.90;;;;;;5034782;28;20178;-84
2022/02/26 11:16:55;;;;;;;4.07;1.10;;;19.10;40.60;;;;;;5041909;28;20170;-84
2022/02/26 11:19:23;;;;;;;4.47;0.95;;;19.10;40.40;;;;;;5041447;28;20660;-81
2022/02/26 11:21:53;;;;;;;3.63;0.80;;;19.10;40.50;;;;;;5040658;28;20162;-84
2022/02/26 11:24:23;;;;;;;2.25;1.00;;;19.10;40.40;;;;;;5006732;28;20178;-83
2022/02/26 11:26:49;;;;;;;3.80;1.08;;;19.00;40.40;;;;;;5024439;28;20214;-83
2022/02/26 11:29:17;;;;;;;3.83;1.00;;;19.10;40.30;;;;;;5058758;28;20193;-82
2022/02/26 11:31:47;;;;;;;2.85;0.70;;;19.10;39.90;;;;;;5057104;28;20392;-82
2022/02/26 11:34:22;;;;;;;2.88;1.10;;;19.20;40.10;;;;;;5041090;28;20169;-83
2022/02/26 11:36:52;;;;;;;3.65;0.98;;;19.20;40.40;;;;;;5011619;28;20238;-84
2022/02/26 11:39:22;;;;;;;3.83;0.93;;;19.20;40.00;;;;;;5042761;28;20608;-83
2022/02/26 11:42:11;;;;;;;2.58;0.77;;;19.10;39.70;;;;;;5057967;28;20174;-82
2022/02/26 11:44:41;;;;;;;5.22;0.85;;;19.20;39.80;;;;;;5059666;28;20186;-83
2022/02/26 11:47:12;;;;;;;3.90;0.82;;;19.20;40.20;;;;;;5042488;28;20177;-81
2022/02/26 11:49:38;;;;;;;5.85;1.15;;;19.20;40.10;;;;;;5039574;28;20260;-83
2022/02/26 11:52:14;;;;;;;3.45;1.00;;;19.20;40.30;;;;;;5055655;28;20192;-82
2022/02/26 11:54:44;;;;;;;2.60;0.98;;;19.20;40.30;;;;;;5023454;28;20189;-82
2022/02/26 11:57:10;;;;;;;3.00;1.05;;;19.10;40.00;;;;;;5020916;28;20186;-82
2022/02/26 11:59:38;;;;;;;3.80;1.00;;;19.20;40.30;;;;;;5054133;28;20292;-82
2022/02/26 12:02:11;;;;;;;5.93;1.20;;;19.20;39.90;;;;;;5055571;28;20546;-81
2022/02/26 12:04:57;;;;;;;1.60;0.63;;;19.20;39.90;;;;;;5004735;28;20559;-82
2022/02/26 12:07:39;;;;;;;1.08;0.70;;;19.20;39.80;;;;;;5055580;28;20307;-83
2022/02/26 12:10:10;;;;;;;3.70;1.10;;;19.20;40.00;;;;;;5039145;28;20158;-83
2022/02/26 12:12:38;;;;;;;2.25;0.80;;;19.20;40.30;;;;;;5020897;28;20174;-82
2022/02/26 12:15:22;;;;;;;3.58;0.90;;;19.20;40.50;;;;;;5060082;28;20180;-82
2022/02/26 12:18:20;;;;;;;3.28;0.90;;;19.10;39.70;;;;;;5055787;28;20216;-82
2022/02/26 12:20:51;;;;;;;2.17;0.85;;;19.20;39.70;;;;;;5041842;28;20201;-83
2022/02/26 12:23:18;;;;;;;2.25;1.02;;;19.20;39.40;;;;;;5056623;28;20185;-81
2022/02/26 12:25:44;;;;;;;3.75;1.00;;;19.20;39.50;;;;;;5054092;28;20639;-81
2022/02/26 12:28:16;;;;;;;2.05;0.90;;;19.20;39.50;;;;;;5038975;28;20174;-82
2022/02/26 12:31:07;;;;;;;1.77;0.60;;;19.20;39.90;;;;;;5035418;28;20214;-81
2022/02/26 12:33:48;;;;;;;3.33;0.88;;;19.20;39.20;;;;;;5032753;28;20163;-84
2022/02/26 12:36:15;;;;;;;1.55;0.80;;;19.20;39.60;;;;;;5032830;28;20625;-82
2022/02/26 12:38:50;;;;;;;1.10;0.70;;;19.30;39.40;;;;;;5033163;28;20614;-82
2022/02/26 12:41:31;;;;;;;3.03;0.82;;;19.30;39.20;;;;;;5034166;28;20177;-82
2022/02/26 12:43:57;;;;;;;2.15;0.85;;;19.30;39.30;;;;;;5016279;28;20506;-83
2022/02/26 12:46:25;;;;;;;2.53;0.88;;;19.30;39.10;;;;;;5033820;28;20195;-83
2022/02/26 12:48:51;;;;;;;1.52;0.80;;;19.30;38.70;;;;;;5034209;28;20151;-82